Sioux City, IA (51101)

11:46 PM CST on February 11, 2016 (GMT -0600)
NW South Sioux City | | Change Station
CLOSE
Current Station
Personal Weather Station
Location: South Sioux City, NE
Elevation: 1093 ft
Nearby Weather Stations

Elev 1093 ft 42.49 °N, 96.42 °W | Updated 1 minute ago

Overcast
Overcast
18.5 °F
Feels Like 12 °F
N
4.2
Wind Variable Wind from West

Today
High -- | Low -- °F
--% Chance of Precip.
Yesterday
High -- | Low -- °F
Precip. -- in
Pressure 30.29 in
Visibility 9.0 miles
Clouds Overcast 2500 ft
Windchill 12 °F
Dew Point 17 °F
Humidity 92%
Rainfall 0.00 in
Snow Depth Not available.
7:28 AM 5:51 PM
Waxing Crescent, 17% visible
METAR KSUX 120452Z 00000KT 9SM OVC025 M07/M09 A3024 RMK AO2 SLP257 T10671094
Pressure 30.29 in
Visibility 9.0 miles
Clouds Overcast 2500 ft
Windchill 12 °F
Dew Point 17 °F
Humidity 92%
Rainfall 0.00 in
Snow Depth Not available.
7:28 AM 5:51 PM
Waxing Crescent, 17% visible
METAR KSUX 120452Z 00000KT 9SM OVC025 M07/M09 A3024 RMK AO2 SLP257 T10671094

10-Day Weather Forecast

Almanac

Astronomy

Feb. 11, 2016 Rise Set
Actual Time
Civil Twilight
Nautical Twilight
Astronomical Twilight
Moon
Length of Visible Light
Length of Day
Tomorrow will be .
, % of the Moon is Illuminated

Today's Extremes

State Highs State Lows

Community

WunderPhotos

Upload Photos

1,892,269 photos uploaded!

WunderBlog® & News

Nearby

Air Quality

  Air Quality AQ Index Pollutant
Not available.

Snow Depth

Station Depth Elevation

Earthquake Activity

City Distance Mag. Time & Date
Minimum magnitude displayed is 2.5.

Coastal Water Temperatures

Place Temperature

Stations

Nearby Weather Stations

Station Location Temp. Windchill Dew Point Humidity Wind Precip. Elev Updated Type
                   

Watches & Warnings

There are currently no watches in effect.